Sky Manor (N40)
Pittstown, NJ
Field Elevation: 560
Lat: 40°33.95N  Long: 74°58.76W
CTAF/Unicom Freq: 122.9750
   
    
Weather Advisories
2021-03-05   10:18 Z
Altimeter 29.94" Hg
Wind 280° @ 9 KT
Gusts 15 KT
Visibility 10 SM
Ceiling CLR
Temperature -7° C (19° F)
Dewpoint -14° C (7° F)
Relative Humidity 55%
Density Altitude --
Condensation Altitude 4,400 feet
Wind Chill: -13° C (9° F)
Wind and Runways
Indicated Runway = 25
Headwind = 8 kt
Crosswind = 4 kt
History
 
 
 
More Info
All DigiWx sites map
NOAA Forecast
 
Airport IQ 5010
(4N1) Greenwood Lake, NJ
(PN44) Upper Gwynedd Heliport
 
about DigiWx
 
FAA Disclaimer: The data displayed is for advisory purposes only and is not to be used for flight planning or operations. For official data, please call (not available) to hear the current automated AWOS voice message.
  METAR N40 051018Z AUTO 28009G15KT 10 SM CLR M07/M14 A2994